Time;durP1;ratioP1;P1;durP2;ratioP2;P2;SDS_P1;SDS_P2;PMS_P1;PMS_P2;Temp;Humidity;BMP_temperature;BMP_pressure;BME280_temperature;BME280_humidity;BME280_pressure;Samples;Min_cycle;Max_cycle;Signal;HPM_P1;HPM_P2
2023/08/18 00:00:43;;;;;;;;;;;16.80;99.90;;;;;;4972847;28;20106;-75
2023/08/18 00:03:08;;;;;;;0.65;0.40;;;16.70;99.90;;;;;;4992646;28;20435;-75
2023/08/18 00:05:34;;;;;;;0.50;0.40;;;16.80;99.90;;;;;;4957327;28;20054;-75
2023/08/18 00:08:00;;;;;;;;;;;16.70;99.90;;;;;;4967128;28;20055;-75
2023/08/18 00:10:25;;;;;;;0.90;0.50;;;16.70;99.90;;;;;;4960291;28;19981;-75
2023/08/18 00:12:51;;;;;;;0.60;0.50;;;16.70;99.90;;;;;;4947941;28;20039;-75
2023/08/18 00:15:17;;;;;;;0.80;0.45;;;16.70;99.90;;;;;;4972380;28;20039;-75
2023/08/18 00:17:42;;;;;;;0.70;0.50;;;16.70;99.90;;;;;;4972731;28;20125;-75
2023/08/18 00:20:09;;;;;;;0.93;0.47;;;16.60;99.90;;;;;;4969793;28;20065;-75
2023/08/18 00:22:34;;;;;;;0.55;0.50;;;16.60;99.90;;;;;;4961981;28;20395;-75
2023/08/18 00:25:00;;;;;;;;;;;16.50;99.90;;;;;;4972720;28;20038;-75
2023/08/18 00:27:26;;;;;;;0.80;0.60;;;16.50;99.90;;;;;;4972410;28;19984;-75
2023/08/18 00:29:51;;;;;;;;;;;16.40;99.90;;;;;;4956784;28;20058;-75
2023/08/18 00:32:17;;;;;;;1.00;0.50;;;16.40;99.90;;;;;;4972436;28;20345;-75
2023/08/18 00:34:43;;;;;;;0.73;0.32;;;16.50;99.90;;;;;;4962316;28;20047;-75
2023/08/18 00:37:09;;;;;;;0.28;0.25;;;16.40;99.90;;;;;;4955852;28;20490;-75
2023/08/18 00:39:34;;;;;;;;;;;16.40;99.90;;;;;;4964298;28;20110;-75
2023/08/18 00:42:00;;;;;;;0.93;0.50;;;16.40;99.90;;;;;;4983113;28;19917;-75
2023/08/18 00:44:26;;;;;;;;;;;16.40;99.90;;;;;;4953430;28;20119;-75
2023/08/18 00:46:52;;;;;;;0.73;0.50;;;16.40;99.90;;;;;;4985250;28;19929;-75
2023/08/18 00:49:18;;;;;;;0.40;0.40;;;16.40;99.90;;;;;;4970971;28;20054;-75
2023/08/18 00:51:45;;;;;;;0.40;0.40;;;16.40;99.90;;;;;;4972198;28;20084;-75
2023/08/18 00:54:12;;;;;;;0.73;0.40;;;16.40;99.90;;;;;;4969109;28;20039;-75
2023/08/18 00:56:39;;;;;;;0.63;0.30;;;16.40;99.90;;;;;;4961833;28;20051;-75
2023/08/18 00:59:06;;;;;;;0.50;0.30;;;16.40;99.90;;;;;;4971607;28;20042;-75
2023/08/18 01:01:33;;;;;;;0.63;0.30;;;16.30;99.90;;;;;;4987875;28;20572;-75
2023/08/18 01:04:00;;;;;;;0.75;0.32;;;16.30;99.90;;;;;;4971968;28;20046;-75
2023/08/18 01:06:26;;;;;;;1.00;0.52;;;16.30;99.90;;;;;;4971756;28;20062;-75
2023/08/18 01:08:52;;;;;;;0.85;0.47;;;16.40;99.90;;;;;;4971740;28;20046;-75
2023/08/18 01:11:24;;;;;;;1.05;0.40;;;16.40;99.90;;;;;;4968948;28;20046;-75
2023/08/18 01:14:02;;;;;;;0.50;0.38;;;16.40;99.90;;;;;;4959180;28;20038;-75
2023/08/18 01:16:29;;;;;;;1.23;0.63;;;16.40;99.90;;;;;;4958119;28;20095;-75
2023/08/18 01:18:55;;;;;;;0.38;0.35;;;16.40;99.90;;;;;;4968953;28;20122;-75
2023/08/18 01:21:23;;;;;;;0.52;0.43;;;16.40;99.90;;;;;;4955367;28;20406;-75
2023/08/18 01:23:49;;;;;;;0.70;0.50;;;16.40;99.90;;;;;;4962057;28;20066;-75
2023/08/18 01:26:15;;;;;;;;;;;16.40;99.90;;;;;;4936477;28;20178;-75
2023/08/18 01:28:43;;;;;;;0.30;0.28;;;16.40;99.90;;;;;;4965582;28;20104;-75
2023/08/18 01:31:27;;;;;;;0.43;0.30;;;16.50;99.90;;;;;;4971028;28;20050;-75
2023/08/18 01:34:07;;;;;;;0.30;0.30;;;16.40;99.90;;;;;;4971405;28;20188;-75
2023/08/18 01:36:38;;;;;;;0.45;0.40;;;16.50;99.90;;;;;;4971154;28;20116;-75
2023/08/18 01:39:06;;;;;;;0.30;0.30;;;16.40;99.90;;;;;;4957379;28;20051;-76
2023/08/18 01:41:33;;;;;;;0.13;0.13;;;16.40;99.90;;;;;;4971068;28;20494;-75
2023/08/18 01:44:02;;;;;;;0.80;0.50;;;16.40;99.90;;;;;;4954919;28;20058;-75
2023/08/18 01:46:28;;;;;;;0.90;0.30;;;16.40;99.90;;;;;;4954749;28;20050;-75
2023/08/18 01:48:53;;;;;;;;;;;16.50;99.90;;;;;;4991686;28;20051;-75
2023/08/18 01:51:19;;;;;;;0.60;0.40;;;16.40;99.90;;;;;;5001771;28;19933;-75
2023/08/18 01:53:44;;;;;;;0.50;0.30;;;16.40;99.90;;;;;;4954613;28;20046;-75
2023/08/18 01:56:10;;;;;;;0.20;0.20;;;16.40;99.90;;;;;;4955249;28;20050;-75
2023/08/18 01:58:36;;;;;;;;;;;16.40;99.90;;;;;;4975546;28;20043;-75
2023/08/18 02:01:01;;;;;;;0.40;0.40;;;16.40;99.90;;;;;;5003302;28;19925;-75
2023/08/18 02:03:27;;;;;;;;;;;16.40;99.90;;;;;;4971376;28;20130;-75
2023/08/18 02:05:54;;;;;;;0.38;0.38;;;16.30;99.90;;;;;;4970771;28;19930;-75
2023/08/18 02:08:21;;;;;;;0.90;0.57;;;16.30;99.90;;;;;;4970605;28;20046;-75
2023/08/18 02:10:46;;;;;;;0.63;0.40;;;16.30;99.90;;;;;;4970583;28;20070;-75
2023/08/18 02:13:14;;;;;;;0.65;0.50;;;16.30;99.90;;;;;;4954732;28;20125;-75
2023/08/18 02:15:39;;;;;;;1.13;0.50;;;16.20;99.90;;;;;;4970873;28;20042;-75
2023/08/18 02:18:05;;;;;;;0.30;0.30;;;16.20;99.90;;;;;;4970192;28;20102;-75
2023/08/18 02:20:31;;;;;;;0.50;0.50;;;16.20;99.90;;;;;;4957579;28;20129;-75
2023/08/18 02:22:57;;;;;;;;;;;16.20;99.90;;;;;;4971025;28;20050;-75
2023/08/18 02:25:23;;;;;;;0.52;0.40;;;16.10;99.90;;;;;;4989392;28;19918;-75
2023/08/18 02:27:49;;;;;;;0.77;0.50;;;16.20;99.90;;;;;;4953303;28;20130;-76
2023/08/18 02:30:15;;;;;;;1.20;0.60;;;16.20;99.90;;;;;;4954735;28;20051;-75
2023/08/18 02:32:41;;;;;;;1.02;0.63;;;16.20;99.90;;;;;;4959716;28;20041;-75
2023/08/18 02:35:07;;;;;;;0.40;0.40;;;16.20;99.90;;;;;;4970361;28;20061;-75
2023/08/18 02:37:33;;;;;;;;;;;16.30;99.90;;;;;;4965415;28;20095;-75
2023/08/18 02:39:58;;;;;;;0.88;0.70;;;16.30;99.90;;;;;;4962232;28;19930;-75
2023/08/18 02:42:24;;;;;;;0.80;0.52;;;16.30;99.90;;;;;;4954481;28;20088;-75
2023/08/18 02:44:50;;;;;;;0.70;0.60;;;16.30;99.90;;;;;;4961111;28;20039;-75
2023/08/18 02:47:16;;;;;;;1.08;0.70;;;16.30;99.90;;;;;;4982197;28;20498;-75
2023/08/18 02:49:42;;;;;;;1.48;0.77;;;16.40;99.90;;;;;;4947113;29;20097;-75
2023/08/18 02:52:09;;;;;;;1.10;0.70;;;16.40;99.90;;;;;;4964058;28;20489;-75
2023/08/18 02:54:35;;;;;;;0.88;0.65;;;16.40;99.90;;;;;;4956574;28;20490;-75
2023/08/18 02:57:01;;;;;;;1.65;0.68;;;16.50;99.90;;;;;;4970101;28;20039;-75
2023/08/18 02:59:27;;;;;;;0.85;0.60;;;16.50;99.90;;;;;;4969984;28;20046;-75
2023/08/18 03:01:53;;;;;;;1.38;0.95;;;16.50;99.90;;;;;;4960494;28;20047;-75
2023/08/18 03:04:18;;;;;;;1.17;0.80;;;16.50;99.90;;;;;;4952520;28;20070;-75
2023/08/18 03:06:44;;;;;;;0.93;0.60;;;16.50;99.90;;;;;;4970392;28;20054;-75
2023/08/18 03:09:09;;;;;;;;;;;16.50;99.90;;;;;;4957135;28;20491;-75
2023/08/18 03:11:35;;;;;;;0.77;0.45;;;16.50;99.90;;;;;;4964284;28;20002;-75
2023/08/18 03:14:01;;;;;;;0.60;0.60;;;16.50;99.90;;;;;;4978160;28;20039;-75
2023/08/18 03:16:27;;;;;;;0.73;0.70;;;16.50;99.90;;;;;;4964316;28;20051;-75
2023/08/18 03:18:52;;;;;;;2.40;1.15;;;16.60;99.90;;;;;;4950695;28;20039;-75
2023/08/18 03:21:18;;;;;;;1.80;1.20;;;16.60;99.90;;;;;;4982174;28;20094;-75
2023/08/18 03:23:43;;;;;;;1.73;0.75;;;16.60;99.90;;;;;;4953879;28;20043;-75
2023/08/18 03:26:10;;;;;;;0.80;0.70;;;16.60;99.90;;;;;;4937974;28;20058;-76
2023/08/18 03:28:36;;;;;;;1.48;0.77;;;16.60;99.90;;;;;;4952000;28;20055;-75
2023/08/18 03:31:06;;;;;;;1.10;0.68;;;16.60;99.90;;;;;;4990408;28;20517;-75
2023/08/18 03:33:33;;;;;;;1.30;0.80;;;16.60;99.90;;;;;;4969630;28;20478;-75
2023/08/18 03:35:59;;;;;;;0.80;0.70;;;16.70;99.90;;;;;;4970162;28;20043;-75
2023/08/18 03:38:25;;;;;;;0.77;0.60;;;16.70;99.90;;;;;;4941493;28;20418;-75
2023/08/18 03:40:57;;;;;;;;;;;16.70;99.90;;;;;;4953044;28;20473;-75
2023/08/18 03:43:23;;;;;;;1.00;0.70;;;16.70;99.90;;;;;;4972564;28;19990;-75
2023/08/18 03:45:49;;;;;;;2.35;0.70;;;16.70;99.90;;;;;;4970321;28;20616;-75
2023/08/18 03:48:15;;;;;;;1.25;0.88;;;16.70;99.90;;;;;;4963327;28;20435;-75
2023/08/18 03:50:41;;;;;;;0.75;0.63;;;16.70;99.90;;;;;;4972954;28;20047;-75
2023/08/18 03:53:07;;;;;;;;;;;16.70;99.90;;;;;;4973647;28;20045;-75
2023/08/18 03:55:33;;;;;;;1.13;0.82;;;16.70;99.90;;;;;;4957016;28;19965;-75
2023/08/18 03:57:58;;;;;;;;;;;16.70;99.90;;;;;;4957207;28;20084;-75
2023/08/18 04:00:24;;;;;;;1.75;1.10;;;16.70;99.90;;;;;;4961624;28;19922;-75
2023/08/18 04:02:50;;;;;;;1.25;0.90;;;16.80;99.90;;;;;;4970658;28;20065;-75
2023/08/18 04:05:16;;;;;;;;;;;16.70;99.90;;;;;;4953933;28;20078;-75
2023/08/18 04:07:41;;;;;;;1.00;0.70;;;16.70;99.90;;;;;;4987619;28;19972;-75
2023/08/18 04:10:07;;;;;;;0.88;0.70;;;16.80;99.90;;;;;;4956549;28;20102;-75
2023/08/18 04:12:34;;;;;;;1.42;0.85;;;16.70;99.90;;;;;;4972776;28;20101;-75
2023/08/18 04:15:00;;;;;;;1.10;0.80;;;16.80;99.90;;;;;;4972634;28;20051;-75
2023/08/18 04:17:25;;;;;;;;;;;16.80;99.90;;;;;;4965346;28;20125;-75
2023/08/18 04:19:51;;;;;;;2.22;1.25;;;16.70;99.90;;;;;;4975206;28;19958;-75
2023/08/18 04:22:17;;;;;;;2.45;1.65;;;16.80;99.90;;;;;;4940744;28;20363;-75
2023/08/18 04:24:43;;;;;;;1.85;1.00;;;16.70;99.90;;;;;;4958938;28;20035;-75
2023/08/18 04:27:08;;;;;;;1.23;1.00;;;16.80;99.90;;;;;;4972264;28;20136;-75
2023/08/18 04:29:34;;;;;;;0.77;0.77;;;16.70;99.90;;;;;;4953258;29;20101;-75
2023/08/18 04:32:00;;;;;;;0.82;0.60;;;16.80;99.90;;;;;;4968433;28;20047;-75
2023/08/18 04:34:26;;;;;;;0.85;0.68;;;16.80;99.90;;;;;;4971270;28;20082;-75
2023/08/18 04:36:52;;;;;;;1.55;0.80;;;16.80;99.90;;;;;;4971447;28;20482;-75
2023/08/18 04:39:18;;;;;;;;;;;16.80;99.90;;;;;;4939611;28;20106;-76
2023/08/18 04:41:43;;;;;;;1.75;0.93;;;16.80;99.90;;;;;;5004736;28;20292;-75
2023/08/18 04:44:09;;;;;;;2.20;0.90;;;16.80;99.90;;;;;;4967962;28;20097;-75
2023/08/18 04:46:34;;;;;;;;;;;16.80;99.90;;;;;;4953460;28;20051;-75
2023/08/18 04:49:00;;;;;;;1.60;0.90;;;16.80;99.90;;;;;;5000676;28;19918;-75
2023/08/18 04:51:27;;;;;;;1.05;0.70;;;16.80;99.90;;;;;;4956107;28;20078;-75
2023/08/18 04:53:53;;;;;;;2.10;0.70;;;16.80;99.90;;;;;;4971142;28;20054;-75
2023/08/18 04:56:18;;;;;;;;;;;16.90;99.90;;;;;;4966740;28;20046;-75
2023/08/18 04:58:44;;;;;;;1.35;0.70;;;16.80;99.90;;;;;;4980571;28;19926;-75
2023/08/18 05:01:09;;;;;;;1.08;0.70;;;16.90;99.90;;;;;;4968741;28;20093;-75
2023/08/18 05:03:35;;;;;;;1.00;0.52;;;16.90;99.90;;;;;;4962172;28;20093;-75
2023/08/18 05:06:08;;;;;;;1.50;0.68;;;16.90;99.90;;;;;;4971706;28;20050;-75
2023/08/18 05:08:35;;;;;;;0.85;0.50;;;16.80;99.90;;;;;;4972001;28;20046;-75
2023/08/18 05:11:09;;;;;;;0.50;0.50;;;16.90;99.90;;;;;;4970606;28;20047;-76
2023/08/18 05:13:36;;;;;;;0.88;0.50;;;16.90;99.90;;;;;;4960491;28;20512;-76
2023/08/18 05:16:03;;;;;;;0.75;0.50;;;16.90;99.90;;;;;;4957656;28;20036;-75
2023/08/18 05:18:29;;;;;;;2.67;0.63;;;16.90;99.90;;;;;;4942836;28;20401;-75
2023/08/18 05:20:59;;;;;;;0.95;0.70;;;16.90;99.90;;;;;;4971555;28;20070;-75
2023/08/18 05:23:26;;;;;;;1.42;0.80;;;16.90;99.90;;;;;;4966348;28;20170;-75
2023/08/18 05:25:56;;;;;;;1.98;1.00;;;16.90;99.90;;;;;;4963375;28;20047;-75
2023/08/18 05:28:23;;;;;;;1.30;0.82;;;17.00;99.90;;;;;;4971385;28;20090;-75
2023/08/18 05:30:50;;;;;;;1.25;0.77;;;17.00;99.90;;;;;;4971155;28;20483;-75
2023/08/18 05:33:16;;;;;;;1.95;1.10;;;17.00;99.90;;;;;;4975519;28;20077;-75
2023/08/18 05:35:42;;;;;;;;;;;17.00;99.90;;;;;;4952320;28;20031;-75
2023/08/18 05:38:11;;;;;;;0.82;0.77;;;17.00;99.90;;;;;;4961879;28;19945;-75
2023/08/18 05:40:50;;;;;;;1.00;0.90;;;17.00;99.90;;;;;;4970691;28;20051;-75
2023/08/18 05:43:18;;;;;;;1.13;0.70;;;17.00;99.90;;;;;;4971227;28;20470;-75
2023/08/18 05:45:46;;;;;;;1.30;0.90;;;17.00;99.90;;;;;;4957595;28;20109;-75
2023/08/18 05:48:12;;;;;;;1.30;1.00;;;17.00;99.90;;;;;;4976731;28;20042;-76
2023/08/18 05:50:38;;;;;;;4.65;1.60;;;17.00;99.90;;;;;;4952891;28;20506;-75
2023/08/18 05:53:04;;;;;;;;;;;17.00;99.90;;;;;;4952224;28;20078;-75
2023/08/18 05:55:30;;;;;;;1.10;0.90;;;17.00;99.90;;;;;;4964574;28;19972;-75
2023/08/18 05:57:58;;;;;;;;;;;17.00;99.90;;;;;;4971326;28;20089;-75
2023/08/18 06:00:23;;;;;;;2.28;0.80;;;17.00;99.90;;;;;;4970865;28;20293;-75
2023/08/18 06:02:49;;;;;;;;;;;17.10;99.90;;;;;;4955217;28;20061;-75
2023/08/18 06:05:15;;;;;;;2.10;0.70;;;17.10;99.90;;;;;;5003227;28;20071;-75
2023/08/18 06:07:41;;;;;;;;;;;17.10;99.90;;;;;;4971057;28;20042;-75
2023/08/18 06:10:07;;;;;;;1.58;0.95;;;17.10;99.90;;;;;;5002996;28;19925;-75
2023/08/18 06:12:33;;;;;;;1.38;0.93;;;17.10;99.90;;;;;;4954964;28;20343;-75
2023/08/18 06:14:59;;;;;;;;;;;17.10;99.90;;;;;;4941339;28;20042;-75
2023/08/18 06:17:24;;;;;;;1.17;0.70;;;17.10;99.90;;;;;;5003335;28;19929;-76
2023/08/18 06:19:50;;;;;;;0.77;0.70;;;17.20;99.90;;;;;;4970402;28;20397;-75
2023/08/18 06:22:16;;;;;;;2.13;1.20;;;17.20;99.90;;;;;;4954605;28;20046;-75
2023/08/18 06:24:41;;;;;;;;;;;17.20;99.90;;;;;;4967548;28;20405;-75
2023/08/18 06:27:07;;;;;;;1.63;0.90;;;17.20;99.90;;;;;;4986850;28;20005;-75
2023/08/18 06:29:32;;;;;;;;;;;17.30;99.90;;;;;;4961683;28;20107;-75
2023/08/18 06:31:58;;;;;;;1.30;1.00;;;17.30;99.90;;;;;;4998304;28;19932;-75
2023/08/18 06:34:24;;;;;;;1.80;1.00;;;17.30;99.90;;;;;;4970601;28;20069;-75
2023/08/18 06:36:49;;;;;;;;;;;17.30;99.90;;;;;;4964874;28;20569;-76
2023/08/18 06:39:15;;;;;;;1.90;1.05;;;17.40;99.90;;;;;;5002644;28;20404;-75
2023/08/18 06:41:42;;;;;;;0.90;0.77;;;17.40;99.90;;;;;;4986342;28;20052;-75
2023/08/18 06:44:08;;;;;;;1.50;0.82;;;17.40;99.90;;;;;;4966655;28;20411;-75
2023/08/18 06:46:34;;;;;;;;;;;17.50;99.90;;;;;;4957747;28;20079;-75
2023/08/18 06:49:01;;;;;;;1.65;1.20;;;17.50;99.90;;;;;;4982381;28;19933;-75
2023/08/18 06:51:27;;;;;;;2.03;1.10;;;17.60;99.90;;;;;;4954259;28;20073;-75
2023/08/18 06:53:53;;;;;;;1.63;1.00;;;17.60;99.90;;;;;;4986197;28;20058;-75
2023/08/18 06:56:19;;;;;;;;;;;17.60;99.90;;;;;;5003166;28;20047;-75
2023/08/18 06:58:44;;;;;;;2.53;1.38;;;17.60;99.90;;;;;;5002600;28;19985;-75
2023/08/18 07:01:10;;;;;;;1.58;1.02;;;17.50;99.90;;;;;;4969754;28;20379;-76
2023/08/18 07:03:36;;;;;;;;;;;17.60;99.90;;;;;;4954366;28;20054;-75
2023/08/18 07:06:03;;;;;;;1.25;0.80;;;17.60;99.90;;;;;;4969836;28;19922;-76
2023/08/18 07:08:29;;;;;;;1.92;0.95;;;17.70;99.90;;;;;;4971354;28;20077;-75
2023/08/18 07:10:55;;;;;;;;;;;17.60;99.90;;;;;;4956694;28;20129;-76
2023/08/18 07:13:21;;;;;;;1.98;1.40;;;17.70;99.90;;;;;;4970211;28;19929;-75
2023/08/18 07:15:48;;;;;;;1.85;1.10;;;17.70;99.90;;;;;;4966709;28;20054;-75
2023/08/18 07:18:14;;;;;;;1.73;1.00;;;17.70;99.90;;;;;;4954734;28;20066;-75
2023/08/18 07:20:43;;;;;;;;;;;17.80;99.90;;;;;;4974444;28;20073;-75
2023/08/18 07:23:09;;;;;;;1.48;1.00;;;17.80;99.90;;;;;;4957233;28;19932;-75
2023/08/18 07:25:36;;;;;;;2.47;1.40;;;17.80;99.90;;;;;;4954702;28;20046;-76
2023/08/18 07:28:02;;;;;;;1.90;1.42;;;17.80;99.90;;;;;;4959252;28;20070;-75
2023/08/18 07:30:28;;;;;;;2.03;1.45;;;17.80;99.90;;;;;;4954549;28;20039;-75
2023/08/18 07:32:54;;;;;;;;;;;17.80;99.90;;;;;;4970577;28;20048;-75
2023/08/18 07:35:20;;;;;;;2.53;1.50;;;17.90;99.90;;;;;;4989593;28;19922;-76
2023/08/18 07:37:45;;;;;;;;;;;17.90;99.90;;;;;;4970983;28;20046;-76
2023/08/18 07:40:12;;;;;;;1.98;1.58;;;17.90;99.90;;;;;;4967035;28;19918;-76
2023/08/18 07:42:39;;;;;;;3.60;2.00;;;18.00;99.90;;;;;;4973485;28;20143;-75
2023/08/18 07:45:06;;;;;;;4.47;2.03;;;18.00;99.90;;;;;;4973427;28;20046;-75
2023/08/18 07:47:32;;;;;;;3.95;2.25;;;18.00;99.90;;;;;;4973569;28;20042;-76
2023/08/18 07:49:58;;;;;;;3.28;2.30;;;18.00;99.90;;;;;;4957024;28;20039;-76
2023/08/18 07:52:23;;;;;;;;;;;18.00;99.90;;;;;;4971739;28;20049;-76
2023/08/18 07:54:50;;;;;;;4.28;2.03;;;18.00;99.90;;;;;;4989260;28;20436;-76
2023/08/18 07:57:16;;;;;;;4.00;2.58;;;18.00;99.90;;;;;;4973284;28;20061;-76
2023/08/18 07:59:42;;;;;;;3.53;2.00;;;18.00;99.90;;;;;;4969517;28;20098;-76
2023/08/18 08:02:07;;;;;;;;;;;18.00;99.90;;;;;;4954062;28;20059;-76
2023/08/18 08:04:33;;;;;;;3.50;2.00;;;18.00;99.90;;;;;;4966984;28;19919;-76
2023/08/18 08:06:58;;;;;;;;;;;18.00;99.90;;;;;;4963681;28;20047;-74
2023/08/18 08:09:25;;;;;;;3.53;2.63;;;18.10;99.90;;;;;;4975164;28;20437;-75
2023/08/18 08:11:51;;;;;;;5.72;2.70;;;18.10;99.90;;;;;;4956616;28;20046;-75
2023/08/18 08:14:20;;;;;;;3.17;2.13;;;18.10;99.90;;;;;;4972683;28;20039;-75
2023/08/18 08:16:46;;;;;;;3.47;2.13;;;18.20;99.90;;;;;;4973043;28;20043;-74
2023/08/18 08:19:13;;;;;;;;;;;18.30;99.90;;;;;;4965684;28;20155;-74
2023/08/18 08:21:40;;;;;;;3.60;1.98;;;18.40;99.90;;;;;;5001068;28;19941;-75
2023/08/18 08:24:06;;;;;;;3.13;1.63;;;18.50;99.90;;;;;;4963498;28;20118;-75
2023/08/18 08:26:33;;;;;;;2.97;2.00;;;18.60;99.90;;;;;;4970129;28;20126;-75
2023/08/18 08:28:58;;;;;;;4.20;2.40;;;18.60;99.90;;;;;;4956374;28;20058;-75
2023/08/18 08:31:24;;;;;;;;;;;18.80;99.90;;;;;;4962123;28;20074;-75
2023/08/18 08:33:50;;;;;;;4.05;1.90;;;18.80;99.90;;;;;;5000967;28;19922;-75
2023/08/18 08:36:15;;;;;;;;;;;18.80;99.90;;;;;;4978219;28;20439;-75
2023/08/18 08:38:42;;;;;;;3.90;2.03;;;18.90;99.90;;;;;;4989984;28;19978;-75
2023/08/18 08:41:08;;;;;;;3.47;2.00;;;19.00;99.90;;;;;;4959887;28;20046;-75
2023/08/18 08:43:34;;;;;;;4.10;2.05;;;19.00;99.90;;;;;;4956375;28;20050;-75
2023/08/18 08:46:01;;;;;;;3.47;1.80;;;19.10;99.90;;;;;;4967258;28;20051;-75
2023/08/18 08:48:40;;;;;;;2.70;1.58;;;19.10;99.90;;;;;;4963551;28;20141;-75
2023/08/18 08:51:10;;;;;;;3.83;1.70;;;19.20;99.90;;;;;;4971989;28;20050;-75
2023/08/18 08:53:39;;;;;;;3.13;1.80;;;19.20;99.90;;;;;;4972213;28;20118;-75
2023/08/18 08:56:07;;;;;;;2.95;1.30;;;19.30;99.90;;;;;;4971845;28;20121;-75
2023/08/18 08:58:34;;;;;;;4.03;1.50;;;19.30;99.90;;;;;;4963333;28;20047;-75
2023/08/18 09:01:01;;;;;;;3.10;1.55;;;19.40;99.90;;;;;;4952493;28;20105;-75
2023/08/18 09:03:28;;;;;;;2.75;1.42;;;19.40;99.90;;;;;;4944841;28;20125;-75
2023/08/18 09:05:54;;;;;;;3.05;1.73;;;19.60;99.90;;;;;;4957341;28;20114;-75
2023/08/18 09:08:20;;;;;;;2.72;1.55;;;19.60;99.90;;;;;;4943280;28;20054;-75
2023/08/18 09:10:46;;;;;;;2.05;1.30;;;19.70;99.90;;;;;;4971813;28;20514;-75
2023/08/18 09:13:12;;;;;;;2.53;1.23;;;19.80;99.90;;;;;;4971349;28;20482;-75
2023/08/18 09:15:41;;;;;;;3.30;1.58;;;19.90;99.90;;;;;;4955481;28;20039;-75
2023/08/18 09:18:07;;;;;;;2.88;1.58;;;19.90;99.90;;;;;;4971421;28;20042;-75
2023/08/18 09:20:37;;;;;;;2.70;1.70;;;19.90;99.90;;;;;;4961465;28;20047;-75
2023/08/18 09:23:03;;;;;;;3.17;1.83;;;19.90;99.90;;;;;;4975193;28;20115;-75
2023/08/18 09:25:32;;;;;;;3.08;1.70;;;19.90;99.90;;;;;;4963714;28;20043;-75
2023/08/18 09:27:58;;;;;;;2.58;1.50;;;19.80;99.90;;;;;;4962619;28;20134;-75
2023/08/18 09:30:24;;;;;;;2.42;1.40;;;19.80;99.90;;;;;;4971135;28;20514;-75
2023/08/18 09:32:50;;;;;;;;;;;19.80;99.90;;;;;;4971728;28;20066;-75
2023/08/18 09:35:19;;;;;;;2.85;1.50;;;19.80;99.90;;;;;;4989246;28;20491;-75
2023/08/18 09:37:53;;;;;;;2.60;1.27;;;19.80;99.90;;;;;;4974455;28;20193;-75
2023/08/18 09:40:19;;;;;;;1.60;1.40;;;19.90;99.90;;;;;;4967316;28;20055;-75
2023/08/18 09:42:45;;;;;;;2.75;1.50;;;19.90;99.90;;;;;;4955112;28;20111;-75
2023/08/18 09:45:11;;;;;;;1.52;1.20;;;19.90;99.90;;;;;;4970896;28;20046;-75
2023/08/18 09:47:39;;;;;;;2.22;1.40;;;19.90;99.90;;;;;;4970935;28;20049;-75
2023/08/18 09:50:09;;;;;;;2.47;1.50;;;20.10;99.90;;;;;;4970835;28;20055;-75
2023/08/18 09:52:41;;;;;;;1.60;1.13;;;20.10;99.90;;;;;;4971146;28;20043;-75
2023/08/18 09:55:07;;;;;;;2.10;1.38;;;20.20;99.90;;;;;;4970706;28;20455;-75
2023/08/18 09:57:40;;;;;;;2.65;1.42;;;20.30;99.90;;;;;;4957060;28;20090;-77
2023/08/18 10:00:09;;;;;;;2.75;1.50;;;20.30;99.90;;;;;;4970634;28;20034;-76
2023/08/18 10:02:36;;;;;;;3.17;1.90;;;20.40;99.90;;;;;;4970614;28;20054;-76
2023/08/18 10:05:03;;;;;;;2.60;1.50;;;20.40;99.90;;;;;;4970895;28;20356;-76
2023/08/18 10:07:30;;;;;;;2.88;1.55;;;20.40;99.90;;;;;;4970792;28;20121;-76
2023/08/18 10:09:57;;;;;;;1.75;1.30;;;20.40;99.90;;;;;;4957017;28;20137;-76
2023/08/18 10:12:23;;;;;;;3.03;1.77;;;20.50;99.90;;;;;;4978069;28;20522;-76
2023/08/18 10:14:51;;;;;;;2.33;1.35;;;20.60;99.90;;;;;;4966365;28;20097;-76
2023/08/18 10:17:21;;;;;;;2.55;1.52;;;20.70;99.90;;;;;;4961470;28;20034;-75
2023/08/18 10:19:55;;;;;;;4.20;2.33;;;20.90;99.90;;;;;;4956776;28;20043;-75
2023/08/18 10:22:24;;;;;;;3.58;1.90;;;20.90;77.50;;;;;;4938749;28;20402;-75
2023/08/18 10:24:51;;;;;;;2.22;1.70;;;20.90;12.10;;;;;;4970426;28;20133;-76
2023/08/18 10:27:26;;;;;;;4.18;1.92;;;21.00;6.60;;;;;;4970218;28;20050;-76
2023/08/18 10:29:57;;;;;;;2.28;1.70;;;21.00;1.00;;;;;;4970202;28;20081;-76
2023/08/18 10:32:23;;;;;;;2.08;1.45;;;21.10;32.30;;;;;;4970181;28;20054;-76
2023/08/18 10:34:50;;;;;;;1.98;1.45;;;21.20;1.00;;;;;;4970447;28;20093;-76
2023/08/18 10:37:20;;;;;;;2.55;1.40;;;21.30;1.00;;;;;;4967092;28;20098;-76
2023/08/18 10:39:48;;;;;;;2.47;1.50;;;21.30;1.00;;;;;;4976471;28;20043;-76
2023/08/18 10:42:15;;;;;;;1.80;1.50;;;21.40;1.00;;;;;;4952300;28;20086;-76
2023/08/18 10:45:21;;;;;;;2.55;1.33;;;21.40;1.00;;;;;;4958815;28;20443;-76
2023/08/18 10:47:47;;;;;;;1.98;1.27;;;21.40;99.90;;;;;;4970133;28;20731;-76
2023/08/18 10:50:14;;;;;;;2.20;1.52;;;21.50;1.00;;;;;;4953829;28;20183;-76
2023/08/18 10:52:41;;;;;;;2.30;1.58;;;21.50;1.00;;;;;;4988147;28;20580;-76
2023/08/18 10:55:07;;;;;;;3.10;2.50;;;21.40;1.00;;;;;;4974133;28;20070;-76
2023/08/18 10:57:33;;;;;;;2.65;2.22;;;21.40;99.90;;;;;;4972794;28;20039;-76
2023/08/18 11:00:00;;;;;;;1.98;1.77;;;21.40;99.90;;;;;;4957925;28;20039;-76
2023/08/18 11:02:26;;;;;;;3.45;1.83;;;21.40;1.00;;;;;;4973689;28;20078;-76
2023/08/18 11:04:52;;;;;;;2.03;1.58;;;21.40;1.00;;;;;;4960622;28;20109;-76
2023/08/18 11:07:21;;;;;;;1.70;1.30;;;21.50;1.00;;;;;;4961964;28;20059;-76
2023/08/18 11:09:46;;;;;;;1.48;1.33;;;21.60;1.00;;;;;;4967842;28;20046;-76
2023/08/18 11:12:15;;;;;;;2.20;1.60;;;21.70;12.00;;;;;;4964787;28;20058;-76
2023/08/18 11:14:40;;;;;;;2.00;1.50;;;21.70;1.00;;;;;;4970578;28;20058;-76
2023/08/18 11:17:06;;;;;;;3.22;1.80;;;21.70;1.00;;;;;;4947091;28;20035;-76
2023/08/18 11:19:32;;;;;;;2.13;1.60;;;21.90;1.00;;;;;;4959781;28;20101;-76
2023/08/18 11:21:57;;;;;;;1.23;1.13;;;22.00;99.90;;;;;;4973837;28;20051;-76
2023/08/18 11:24:24;;;;;;;1.70;1.60;;;22.10;99.90;;;;;;4957309;28;20517;-76
2023/08/18 11:26:50;;;;;;;2.17;1.85;;;22.20;99.90;;;;;;4955928;28;20058;-76
2023/08/18 11:29:16;;;;;;;1.73;1.40;;;22.30;99.90;;;;;;4950218;28;20055;-76
2023/08/18 11:31:45;;;;;;;4.50;2.72;;;22.40;99.90;;;;;;4950859;28;20414;-76
2023/08/18 11:34:11;;;;;;;2.80;2.35;;;22.50;1.00;;;;;;4989322;28;20085;-76
2023/08/18 11:36:39;;;;;;;2.30;2.00;;;22.60;99.90;;;;;;4989582;28;20047;-76
2023/08/18 11:39:08;;;;;;;1.88;1.70;;;22.80;99.90;;;;;;4959819;28;20490;-76
2023/08/18 11:41:44;;;;;;;3.08;2.10;;;23.10;99.90;;;;;;4957801;28;20137;-76
2023/08/18 11:44:11;;;;;;;2.88;2.00;;;23.10;4.70;;;;;;4975554;28;20050;-76
2023/08/18 11:46:40;;;;;;;1.98;1.70;;;23.20;92.00;;;;;;4953821;29;20444;-76
2023/08/18 11:49:14;;;;;;;1.90;1.50;;;23.30;1.00;;;;;;4985947;28;20054;-76
2023/08/18 11:51:56;;;;;;;1.63;1.30;;;23.40;7.30;;;;;;4973149;28;20054;-76
2023/08/18 11:54:22;;;;;;;2.28;1.50;;;23.50;67.60;;;;;;4956706;28;20043;-76
2023/08/18 11:56:50;;;;;;;2.40;1.75;;;23.80;54.60;;;;;;4973346;28;20081;-75
2023/08/18 11:59:22;;;;;;;1.77;1.50;;;23.80;99.90;;;;;;4970707;28;20043;-75
2023/08/18 12:01:59;;;;;;;1.63;1.52;;;23.60;99.90;;;;;;4962921;28;20201;-75
2023/08/18 12:04:30;;;;;;;2.25;1.50;;;23.60;99.90;;;;;;4972319;28;20047;-75
2023/08/18 12:06:56;;;;;;;2.45;1.80;;;23.50;99.90;;;;;;4972910;28;20469;-75
2023/08/18 12:09:22;;;;;;;1.95;1.60;;;23.60;99.90;;;;;;4959268;28;20510;-76
2023/08/18 12:11:49;;;;;;;2.15;1.77;;;23.50;1.00;;;;;;4972692;28;20077;-75
2023/08/18 12:14:16;;;;;;;1.80;1.55;;;23.40;99.90;;;;;;4972623;28;20051;-75
2023/08/18 12:16:43;;;;;;;2.05;1.80;;;23.40;99.90;;;;;;4972510;28;20046;-75
2023/08/18 12:19:09;;;;;;;1.92;1.40;;;23.40;1.00;;;;;;4972608;28;20394;-75
2023/08/18 12:21:38;;;;;;;2.38;1.98;;;23.30;1.00;;;;;;4968759;28;20506;-76
2023/08/18 12:24:07;;;;;;;1.60;1.50;;;23.30;1.00;;;;;;4963280;28;20051;-76
2023/08/18 12:26:34;;;;;;;2.08;1.48;;;23.30;1.00;;;;;;4972399;28;20043;-75
2023/08/18 12:29:03;;;;;;;1.90;1.60;;;23.30;54.50;;;;;;4971414;28;20079;-76
2023/08/18 12:31:33;;;;;;;2.15;1.90;;;23.30;99.90;;;;;;4948483;28;20051;-75
2023/08/18 12:34:05;;;;;;;2.83;2.08;;;23.20;52.90;;;;;;4972110;28;20169;-76
2023/08/18 12:36:32;;;;;;;2.78;1.98;;;23.20;80.60;;;;;;4972443;28;20569;-76
2023/08/18 12:38:57;;;;;;;2.15;1.90;;;23.20;99.90;;;;;;4972133;28;20486;-75
2023/08/18 12:41:25;;;;;;;2.30;2.00;;;23.30;99.90;;;;;;4956273;28;20061;-75
2023/08/18 12:43:51;;;;;;;1.80;1.52;;;23.30;99.90;;;;;;4970387;28;20553;-75
2023/08/18 12:46:17;;;;;;;2.60;1.98;;;23.40;99.90;;;;;;4956127;28;20181;-75
2023/08/18 12:48:43;;;;;;;2.30;1.77;;;23.50;99.90;;;;;;4967602;28;20055;-75
2023/08/18 12:51:08;;;;;;;1.50;1.40;;;23.60;99.90;;;;;;4983331;28;20142;-75
2023/08/18 12:53:34;;;;;;;1.55;1.40;;;23.70;99.90;;;;;;4971756;28;20588;-75
2023/08/18 12:56:00;;;;;;;2.92;2.50;;;23.90;99.90;;;;;;4971604;28;20457;-75
2023/08/18 12:58:25;;;;;;;2.75;2.47;;;24.20;99.90;;;;;;4955876;28;20057;-75